Paoli, CO (80746)

5:30 AM MDT on September 20, 2014 (GMT -0600)
Holyoke Municipal | Change Station
CLOSE
Current Station
Airport
Location: Holyoke AP, Holyoke, CO,
Elevation: 3730 ft
Nearby Weather Stations

Elev 3730 ft 40.57 °N, 102.28 °W | Updated 15 minutes ago

Clear
Clear
61 °F
Feels Like 61 °F
N
7
Wind Variable Wind from WNW

Today
High -- | Low -- °F
--% Chance of Precip.
Yesterday
High -- | Low -- °F
Precip. -- in
6:35 AM 6:50 PM
Waning Crescent, 13% visible
Pressure 30.03 in
Visibility 10.0 miles
Clouds Clear
Dew Point 54 °F
Humidity 77%
Rainfall 0.00 in
Snow Depth 0 in , 0 in , 1 in
UV 0 out of 12
Pollen 6.10 out of 12
Air Quality Not available.
Flu Activity Not available.
METAR KHEQ 201115Z AUTO 29006KT 10SM CLR 16/12 A3003 RMK AO2

More Conditions Fewer Conditions

Pressure 30.03 in
Visibility 10.0 miles
Clouds Clear
Dew Point 54 °F
Humidity 77%
Rainfall 0.00 in
Snow Depth 0 in , 0 in , 1 in
UV 0 out of 12
Pollen 6.10 out of 12
Air Quality Not available.
Flu Activity Not available.
METAR KHEQ 201115Z AUTO 29006KT 10SM CLR 16/12 A3003 RMK AO2

More Conditions Fewer Conditions

10-Day Weather Forecast

Almanac

Astronomy

Sep. 20, 2014 Rise Set
Actual Time 6:35 AM MDT 6:50 PM MDT
Civil Twilight 6:08 AM MDT 7:17 PM MDT
Nautical Twilight 5:36 AM MDT 7:49 PM MDT
Astronomical Twilight 5:03 AM MDT 8:22 PM MDT
Moon 3:16 AM MDT 4:55 PM MDT
Length of Visible Light 13h 09m
Length of Day
12h 14m
Tomorrow will be 2m 40s shorter.
Waning Crescent, 13% of the Moon is Illuminated
Today
Waning Crescent
Sep 24
New
Oct 1
First Quarter
Oct 8
Full
Oct 15
Last Quarter

Today's Extremes

State Highs State Lows

Community

WunderPhotos

Upload Photos

1,754,833 photos uploaded!

WunderBlogs® & News

Nearby

Snow Depth

Station Depth Elevation
Lake Irene 0 in 10700 ft
Willow Creek Pass 0 in 9540 ft
Kiln 1 in 9600 ft
Mancos 1 in 10000 ft
Columbine 1 in 9160 ft

Earthquake Activity

City Distance Mag. Time & Date
No recent earthquake activity has been reported nearby.
Minimum magnitude displayed is 2.5.

Coastal Water Temperatures

Place Temperature
No Stations Reporting

Nearby Weather Stations